Freeport, West Virginia
Current Conditions -  °F | °C
As of 12:53 PM on Sunday 25 Jan 2015 (Local Time) from KPKB Reporting Station
Light Rain Light Rain  
Wind Chill: 34°   Ceiling: 3500
Heat Index: 38°   Visibility: 9mi
Dew Point: 33°   Wind: 5mph
Humidity: 83%   Direction: 200°SSW
Pressure: 29.82"   Gusts: NA
Location:  39.185°N, 81.3645°W
Report Text: KPKB 251753Z 20004KT 9SM -RA OVC035 03/01 A2982 RMK AO2 RAB33 SLP101 P0000 60000 T00330006 10039 20000 58001
Loading
Personal Weather Stations






























Interactive Weather Map New forecast layout! Learn more

10-Day Weather Forecast

Advertisements
Track Severe Weather on mobile